Time;durP1;ratioP1;P1;durP2;ratioP2;P2;SDS_P1;SDS_P2;PMS_P1;PMS_P2;Temp;Humidity;BMP_temperature;BMP_pressure;BME280_temperature;BME280_humidity;BME280_pressure;Samples;Min_cycle;Max_cycle;Signal;HPM_P1;HPM_P2
2022/09/07 00:00:15;;;;;;;59.80;25.02;;;;;;;;;;4971257;28;20030;-77
2022/09/07 00:02:41;;;;;;;44.80;23.58;;;;;;;;;;4967041;28;20031;-76
2022/09/07 00:05:07;;;;;;;63.60;29.02;;;;;;;;;;4972823;28;20034;-76
2022/09/07 00:07:34;;;;;;;57.42;28.42;;;;;;;;;;4990376;28;20049;-76
2022/09/07 00:10:00;;;;;;;44.25;20.98;;;;;;;;;;4991877;28;20488;-76
2022/09/07 00:12:26;;;;;;;42.42;19.95;;;;;;;;;;4966066;28;20449;-75
2022/09/07 00:14:52;;;;;;;41.95;21.17;;;;;;;;;;4988730;28;20027;-74
2022/09/07 00:17:18;;;;;;;38.90;19.05;;;;;;;;;;4989282;28;20410;-76
2022/09/07 00:19:44;;;;;;;37.05;17.88;;;;;;;;;;4991355;28;20061;-76
2022/09/07 00:22:10;;;;;;;38.53;16.25;;;;;;;;;;4989445;28;20455;-77
2022/09/07 00:24:36;;;;;;;31.25;14.93;;;;;;;;;;4990414;28;20101;-77
2022/09/07 00:27:02;;;;;;;25.70;14.13;;;;;;;;;;4987348;28;20424;-77
2022/09/07 00:29:28;;;;;;;39.83;16.38;;;;;;;;;;4972984;28;20038;-77
2022/09/07 00:31:54;;;;;;;39.03;16.80;;;;;;;;;;4989137;28;20026;-77
2022/09/07 00:34:20;;;;;;;31.67;14.55;;;;;;;;;;4987630;28;20561;-77
2022/09/07 00:36:46;;;;;;;28.58;11.75;;;;;;;;;;4989770;28;20888;-77
2022/09/07 00:39:13;;;;;;;33.72;13.05;;;;;;;;;;4971604;28;20040;-78
2022/09/07 00:41:40;;;;;;;29.17;13.90;;;;;;;;;;4988043;28;20456;-77
2022/09/07 00:44:24;;;;;;;26.95;12.70;;;;;;;;;;4989511;28;20034;-76
2022/09/07 00:46:50;;;;;;;28.48;13.43;;;;;;;;;;4989432;28;20036;-75
2022/09/07 00:49:19;;;;;;;27.20;13.02;;;;;;;;;;4971196;28;20407;-77
2022/09/07 00:51:51;;;;;;;25.60;11.05;;;;;;;;;;4986126;28;20070;-76
2022/09/07 00:54:23;;;;;;;19.10;8.48;;;;;;;;;;4988071;28;20050;-76
2022/09/07 00:56:51;;;;;;;15.82;8.27;;;;;;;;;;4963327;28;20043;-76
2022/09/07 00:59:21;;;;;;;18.67;8.43;;;;;;;;;;4989042;28;20039;-75
2022/09/07 01:01:47;;;;;;;18.17;9.63;;;;;;;;;;4984405;28;20026;-75
2022/09/07 01:04:13;;;;;;;13.35;6.80;;;;;;;;;;4969056;28;20046;-76
2022/09/07 01:06:41;;;;;;;17.38;7.93;;;;;;;;;;4963688;28;20162;-75
2022/09/07 01:09:12;;;;;;;18.65;9.10;;;;;;;;;;4988289;28;20034;-74
2022/09/07 01:11:38;;;;;;;29.67;9.55;;;;;;;;;;4983285;28;20058;-75
2022/09/07 01:14:06;;;;;;;23.17;8.30;;;;;;;;;;4985481;28;20022;-76
2022/09/07 01:16:48;;;;;;;19.42;8.88;;;;;;;;;;4985483;28;20035;-75
2022/09/07 01:19:26;;;;;;;21.30;9.90;;;;;;;;;;4987325;28;20526;-74
2022/09/07 01:22:25;;;;;;;18.65;9.77;;;;;;;;;;4986347;28;20492;-74
2022/09/07 01:25:03;;;;;;;20.75;9.05;;;;;;;;;;4933068;28;20039;-74
2022/09/07 01:27:28;;;;;;;20.02;7.57;;;;;;;;;;4963855;28;20263;-72
2022/09/07 01:29:58;;;;;;;10.95;7.03;;;;;;;;;;4985916;28;20204;-77
2022/09/07 01:32:36;;;;;;;12.50;7.13;;;;;;;;;;4987198;28;20026;-74
2022/09/07 01:35:04;;;;;;;10.90;7.35;;;;;;;;;;4988550;28;20061;-76
2022/09/07 01:37:42;;;;;;;11.38;7.10;;;;;;;;;;4989044;28;20522;-75
2022/09/07 01:40:44;;;;;;;10.90;7.20;;;;;;;;;;4992145;28;20034;-73
2022/09/07 01:43:09;;;;;;;;;;;;;;;;;;4892016;29;20044;-72
2022/09/07 01:45:37;;;;;;;16.90;9.45;;;;;;;;;;4952426;28;19914;-72
2022/09/07 01:48:05;;;;;;;14.50;8.95;;;;;;;;;;4990049;28;20396;-73
2022/09/07 01:50:36;;;;;;;13.55;8.57;;;;;;;;;;4991334;28;20085;-74
2022/09/07 01:53:21;;;;;;;10.93;7.50;;;;;;;;;;4986626;28;20476;-74
2022/09/07 01:55:47;;;;;;;14.95;8.27;;;;;;;;;;4990619;28;20099;-74
2022/09/07 01:58:23;;;;;;;13.82;8.50;;;;;;;;;;4990656;28;20556;-73
2022/09/07 02:01:10;;;;;;;13.43;8.65;;;;;;;;;;4987396;28;20510;-73
2022/09/07 02:03:39;;;;;;;12.05;9.20;;;;;;;;;;4992459;28;20064;-75
2022/09/07 02:06:13;;;;;;;19.23;10.10;;;;;;;;;;4992266;28;20034;-74
2022/09/07 02:08:51;;;;;;;19.65;10.98;;;;;;;;;;4994546;28;20038;-73
2022/09/07 02:11:21;;;;;;;19.98;9.85;;;;;;;;;;4992317;28;20105;-74
2022/09/07 02:13:53;;;;;;;17.83;9.35;;;;;;;;;;4995151;28;20041;-74
2022/09/07 02:16:22;;;;;;;14.20;9.75;;;;;;;;;;4993622;28;20038;-74
2022/09/07 02:18:50;;;;;;;15.32;9.65;;;;;;;;;;4969347;28;20023;-73
2022/09/07 02:21:19;;;;;;;14.30;8.27;;;;;;;;;;4974566;28;20460;-73
2022/09/07 02:23:48;;;;;;;13.45;8.30;;;;;;;;;;4995142;28;20026;-72
2022/09/07 02:26:17;;;;;;;16.08;9.50;;;;;;;;;;4994404;28;20034;-74
2022/09/07 02:28:43;;;;;;;14.13;8.63;;;;;;;;;;4992863;28;20537;-73
2022/09/07 02:31:09;;;;;;;17.02;10.02;;;;;;;;;;4995376;28;20030;-71
2022/09/07 02:33:35;;;;;;;15.60;8.30;;;;;;;;;;4993263;28;20125;-73
2022/09/07 02:36:03;;;;;;;14.93;8.85;;;;;;;;;;4975269;28;20504;-73
2022/09/07 02:38:29;;;;;;;13.70;7.63;;;;;;;;;;4994303;28;20029;-73
2022/09/07 02:40:56;;;;;;;13.00;8.32;;;;;;;;;;4988579;28;20057;-73
2022/09/07 02:43:22;;;;;;;22.35;9.75;;;;;;;;;;4970185;28;20027;-73
2022/09/07 02:45:54;;;;;;;18.65;9.02;;;;;;;;;;4993667;28;20522;-74
2022/09/07 02:48:31;;;;;;;14.52;9.10;;;;;;;;;;4986637;28;20295;-73
2022/09/07 02:51:14;;;;;;;17.30;9.55;;;;;;;;;;4986421;28;20069;-73
2022/09/07 02:53:51;;;;;;;17.25;10.13;;;;;;;;;;4974162;28;20034;-75
2022/09/07 02:56:26;;;;;;;15.50;9.00;;;;;;;;;;4989765;28;20014;-75
2022/09/07 02:58:58;;;;;;;14.25;9.30;;;;;;;;;;4991497;28;20039;-75
2022/09/07 03:01:32;;;;;;;14.60;8.52;;;;;;;;;;4987166;28;20101;-75
2022/09/07 03:04:08;;;;;;;17.13;9.38;;;;;;;;;;4974735;28;20431;-75
2022/09/07 03:06:37;;;;;;;19.45;9.57;;;;;;;;;;4966392;28;20022;-74
2022/09/07 03:09:06;;;;;;;15.45;8.70;;;;;;;;;;4990995;28;20030;-74
2022/09/07 03:11:35;;;;;;;17.35;9.02;;;;;;;;;;4985361;28;20019;-73
2022/09/07 03:14:12;;;;;;;20.15;9.52;;;;;;;;;;4973352;28;20045;-74
2022/09/07 03:16:38;;;;;;;16.90;9.13;;;;;;;;;;4988937;28;20048;-74
2022/09/07 03:19:04;;;;;;;18.98;10.40;;;;;;;;;;4955053;28;20690;-74
2022/09/07 03:21:30;;;;;;;23.90;11.52;;;;;;;;;;4967614;28;20030;-74
2022/09/07 03:23:56;;;;;;;21.27;11.57;;;;;;;;;;4989911;28;20111;-75
2022/09/07 03:26:24;;;;;;;20.38;11.68;;;;;;;;;;4986840;28;20046;-75
2022/09/07 03:28:50;;;;;;;16.80;10.75;;;;;;;;;;4986449;28;20143;-74
2022/09/07 03:31:16;;;;;;;21.70;10.25;;;;;;;;;;4988344;28;20034;-74
2022/09/07 03:33:42;;;;;;;21.83;11.45;;;;;;;;;;4991411;28;20038;-75
2022/09/07 03:36:08;;;;;;;22.92;11.88;;;;;;;;;;4991181;28;20117;-72
2022/09/07 03:38:34;;;;;;;18.65;10.90;;;;;;;;;;4988001;28;20026;-74
2022/09/07 03:41:01;;;;;;;17.45;10.60;;;;;;;;;;4966759;28;20042;-75
2022/09/07 03:43:27;;;;;;;21.75;10.27;;;;;;;;;;4985712;28;20038;-75
2022/09/07 03:45:57;;;;;;;15.55;8.30;;;;;;;;;;4968664;28;20484;-69
2022/09/07 03:48:23;;;;;;;13.53;7.73;;;;;;;;;;4983360;28;20049;-68
2022/09/07 03:50:59;;;;;;;15.25;8.77;;;;;;;;;;4984560;28;20053;-69
2022/09/07 03:53:25;;;;;;;17.15;9.02;;;;;;;;;;4983821;28;20496;-69
2022/09/07 03:56:02;;;;;;;14.43;8.52;;;;;;;;;;4985475;28;20057;-69
2022/09/07 03:58:29;;;;;;;16.92;8.70;;;;;;;;;;4982169;28;20045;-69
2022/09/07 04:00:55;;;;;;;18.17;9.35;;;;;;;;;;4980972;28;20116;-69
2022/09/07 04:03:21;;;;;;;21.65;9.88;;;;;;;;;;4964470;28;20034;-68
2022/09/07 04:05:47;;;;;;;24.50;11.05;;;;;;;;;;4966419;28;20545;-68
2022/09/07 04:08:13;;;;;;;20.35;10.13;;;;;;;;;;4983320;28;20057;-68
2022/09/07 04:10:40;;;;;;;16.58;9.15;;;;;;;;;;4983644;28;20081;-68
2022/09/07 04:13:06;;;;;;;20.83;9.88;;;;;;;;;;4984221;28;20034;-69
2022/09/07 04:15:32;;;;;;;21.67;10.10;;;;;;;;;;4953042;28;20495;-69
2022/09/07 04:17:58;;;;;;;17.80;9.55;;;;;;;;;;4968782;28;20043;-69
2022/09/07 04:20:24;;;;;;;19.67;10.88;;;;;;;;;;4987391;28;20526;-70
2022/09/07 04:22:51;;;;;;;18.15;10.32;;;;;;;;;;4985903;28;20038;-69
2022/09/07 04:25:17;;;;;;;17.98;8.93;;;;;;;;;;4961552;28;20515;-68
2022/09/07 04:27:44;;;;;;;21.08;9.45;;;;;;;;;;4983597;28;20146;-68
2022/09/07 04:30:10;;;;;;;15.80;9.40;;;;;;;;;;4988327;28;20121;-71
2022/09/07 04:32:36;;;;;;;17.85;10.35;;;;;;;;;;4983276;28;20057;-69
2022/09/07 04:35:03;;;;;;;26.08;12.07;;;;;;;;;;4971145;28;20550;-69
2022/09/07 04:37:29;;;;;;;19.55;10.98;;;;;;;;;;4973462;28;20097;-69
2022/09/07 04:39:55;;;;;;;17.35;11.85;;;;;;;;;;4992368;28;20495;-69
2022/09/07 04:42:21;;;;;;;20.08;11.10;;;;;;;;;;4984543;28;20072;-69
2022/09/07 04:44:50;;;;;;;20.52;12.40;;;;;;;;;;4990465;28;20034;-70
2022/09/07 04:47:16;;;;;;;22.38;12.43;;;;;;;;;;4986030;28;20034;-69
2022/09/07 04:49:42;;;;;;;25.40;13.73;;;;;;;;;;4984998;28;20018;-69
2022/09/07 04:52:09;;;;;;;23.60;12.65;;;;;;;;;;4989272;28;20043;-69
2022/09/07 04:54:35;;;;;;;20.05;12.32;;;;;;;;;;4974147;28;20061;-69
2022/09/07 04:57:01;;;;;;;21.60;13.13;;;;;;;;;;4975488;28;20499;-69
2022/09/07 04:59:27;;;;;;;22.60;13.52;;;;;;;;;;4975033;28;20048;-69
2022/09/07 05:01:54;;;;;;;31.35;15.20;;;;;;;;;;4973953;28;20121;-68
2022/09/07 05:04:20;;;;;;;35.75;15.70;;;;;;;;;;4980542;28;20041;-69
2022/09/07 05:06:46;;;;;;;28.15;15.40;;;;;;;;;;4979337;28;20031;-70
2022/09/07 05:09:12;;;;;;;32.90;15.73;;;;;;;;;;4969076;28;20065;-71
2022/09/07 05:11:38;;;;;;;34.85;16.88;;;;;;;;;;4964248;28;20058;-70
2022/09/07 05:14:04;;;;;;;32.13;17.80;;;;;;;;;;4985918;28;20543;-70
2022/09/07 05:16:30;;;;;;;37.45;18.33;;;;;;;;;;4987165;28;20026;-70
2022/09/07 05:18:58;;;;;;;44.30;18.90;;;;;;;;;;4987951;28;20038;-70
2022/09/07 05:21:28;;;;;;;44.90;21.02;;;;;;;;;;4984278;28;20029;-70
2022/09/07 05:23:56;;;;;;;51.25;23.70;;;;;;;;;;4987020;28;20503;-70
2022/09/07 05:26:23;;;;;;;56.15;23.10;;;;;;;;;;4986118;28;20022;-70
2022/09/07 05:28:49;;;;;;;57.25;23.48;;;;;;;;;;4986178;28;20041;-70
2022/09/07 05:31:18;;;;;;;50.75;23.80;;;;;;;;;;4983411;28;20027;-71
2022/09/07 05:33:51;;;;;;;54.65;24.02;;;;;;;;;;4983881;28;20026;-70
2022/09/07 05:36:18;;;;;;;56.17;24.33;;;;;;;;;;4985837;28;20499;-70
2022/09/07 05:38:44;;;;;;;57.78;24.10;;;;;;;;;;4962822;28;20065;-70
2022/09/07 05:41:15;;;;;;;62.38;25.00;;;;;;;;;;4987217;28;20069;-70
2022/09/07 05:43:41;;;;;;;55.67;24.27;;;;;;;;;;4986936;28;20033;-70
2022/09/07 05:46:07;;;;;;;59.40;23.95;;;;;;;;;;4989040;28;20499;-70
2022/09/07 05:48:34;;;;;;;60.60;24.85;;;;;;;;;;4988538;28;20129;-71
2022/09/07 05:51:00;;;;;;;55.20;24.88;;;;;;;;;;4985700;28;20172;-70
2022/09/07 05:53:26;;;;;;;70.75;25.45;;;;;;;;;;4986229;28;20030;-70
2022/09/07 05:55:52;;;;;;;62.70;25.60;;;;;;;;;;4989210;28;20400;-71
2022/09/07 05:58:18;;;;;;;59.00;24.27;;;;;;;;;;4985998;28;20046;-71
2022/09/07 06:00:44;;;;;;;58.35;24.67;;;;;;;;;;4983775;28;20077;-70
2022/09/07 06:03:11;;;;;;;59.65;25.67;;;;;;;;;;4985580;28;20100;-71
2022/09/07 06:05:37;;;;;;;54.70;24.73;;;;;;;;;;4987153;28;20081;-71
2022/09/07 06:08:03;;;;;;;52.70;26.02;;;;;;;;;;4984054;28;20030;-70
2022/09/07 06:10:34;;;;;;;53.15;24.13;;;;;;;;;;4984211;28;20081;-71
2022/09/07 06:13:00;;;;;;;;;;;;;;;;;;4986479;28;20086;-70
2022/09/07 06:15:26;;;;;;;66.15;27.30;;;;;;;;;;4981795;28;19925;-70
2022/09/07 06:17:52;;;;;;;66.15;28.80;;;;;;;;;;4973260;28;20022;-71
2022/09/07 06:20:18;;;;;;;54.28;25.92;;;;;;;;;;4973223;28;20443;-71
2022/09/07 06:22:44;;;;;;;60.47;27.77;;;;;;;;;;4964088;28;20494;-69
2022/09/07 06:25:11;;;;;;;55.42;25.25;;;;;;;;;;4983374;28;20121;-70
2022/09/07 06:27:36;;;;;;;50.35;25.17;;;;;;;;;;4952298;28;20034;-69
2022/09/07 06:30:03;;;;;;;46.33;24.08;;;;;;;;;;4985209;28;20499;-69
2022/09/07 06:32:29;;;;;;;46.00;24.33;;;;;;;;;;4965991;28;20023;-69
2022/09/07 06:34:55;;;;;;;49.88;24.52;;;;;;;;;;4987119;28;20029;-71
2022/09/07 06:37:21;;;;;;;50.40;24.52;;;;;;;;;;4974079;28;20472;-70
2022/09/07 06:39:48;;;;;;;37.85;22.45;;;;;;;;;;4991285;28;20043;-69
2022/09/07 06:42:14;;;;;;;44.53;23.23;;;;;;;;;;4990966;28;20128;-69
2022/09/07 06:44:40;;;;;;;42.80;24.98;;;;;;;;;;4982938;28;20057;-69
2022/09/07 06:47:06;;;;;;;45.35;24.58;;;;;;;;;;4987563;28;20061;-69
2022/09/07 06:49:32;;;;;;;49.67;27.02;;;;;;;;;;4961575;28;20042;-69
2022/09/07 06:51:58;;;;;;;42.97;23.98;;;;;;;;;;4970995;28;20105;-70
2022/09/07 06:54:24;;;;;;;40.90;25.02;;;;;;;;;;4961213;28;20551;-71
2022/09/07 06:56:50;;;;;;;52.88;28.98;;;;;;;;;;4978724;28;20034;-70
2022/09/07 06:59:16;;;;;;;44.45;26.13;;;;;;;;;;4972073;28;20035;-69
2022/09/07 07:01:42;;;;;;;33.05;21.92;;;;;;;;;;4982398;28;20539;-71
2022/09/07 07:04:08;;;;;;;36.38;21.83;;;;;;;;;;4988329;28;20058;-71
2022/09/07 07:06:38;;;;;;;37.63;22.48;;;;;;;;;;4989742;28;20030;-71
2022/09/07 07:09:05;;;;;;;31.92;20.80;;;;;;;;;;4990126;28;20065;-70
2022/09/07 07:11:31;;;;;;;30.45;20.10;;;;;;;;;;4971686;28;20122;-71
2022/09/07 07:13:58;;;;;;;30.23;20.35;;;;;;;;;;4982139;28;20037;-71
2022/09/07 07:16:24;;;;;;;28.67;19.40;;;;;;;;;;4988434;28;20027;-71
2022/09/07 07:18:54;;;;;;;27.88;18.83;;;;;;;;;;4990237;28;20042;-70
2022/09/07 07:21:20;;;;;;;23.65;17.30;;;;;;;;;;4990582;28;20022;-71
2022/09/07 07:23:50;;;;;;;22.42;16.95;;;;;;;;;;4971805;28;20041;-70
2022/09/07 07:26:17;;;;;;;26.10;17.50;;;;;;;;;;4988015;28;20073;-71
2022/09/07 07:28:48;;;;;;;25.30;17.33;;;;;;;;;;4969032;28;20034;-71
2022/09/07 07:31:15;;;;;;;26.88;18.23;;;;;;;;;;4974878;28;20034;-71
2022/09/07 07:33:41;;;;;;;25.80;17.83;;;;;;;;;;4989566;28;20023;-71
2022/09/07 07:36:14;;;;;;;25.70;18.02;;;;;;;;;;4986398;28;20027;-71
2022/09/07 07:38:41;;;;;;;24.63;18.23;;;;;;;;;;4980756;28;20081;-71
2022/09/07 07:41:07;;;;;;;30.40;18.65;;;;;;;;;;4973793;28;20030;-70
2022/09/07 07:43:33;;;;;;;22.63;16.92;;;;;;;;;;4973652;28;20077;-71
2022/09/07 07:45:59;;;;;;;23.80;17.10;;;;;;;;;;4989602;28;20039;-70
2022/09/07 07:48:26;;;;;;;22.42;17.20;;;;;;;;;;4989696;28;20326;-70
2022/09/07 07:50:59;;;;;;;24.08;17.05;;;;;;;;;;4990857;28;20058;-70
2022/09/07 07:53:26;;;;;;;22.48;17.15;;;;;;;;;;4992971;28;20030;-70
2022/09/07 07:55:52;;;;;;;20.20;16.23;;;;;;;;;;4994318;28;20030;-70
2022/09/07 07:58:18;;;;;;;20.88;16.33;;;;;;;;;;4994304;28;20046;-70
2022/09/07 08:00:44;;;;;;;21.05;16.10;;;;;;;;;;4952619;28;20027;-71
2022/09/07 08:03:10;;;;;;;25.40;16.13;;;;;;;;;;4994077;28;20039;-72
2022/09/07 08:05:37;;;;;;;21.05;15.60;;;;;;;;;;4976158;28;20095;-72
2022/09/07 08:08:03;;;;;;;20.35;14.35;;;;;;;;;;4957882;28;20050;-71
2022/09/07 08:10:29;;;;;;;16.60;14.02;;;;;;;;;;4957039;28;20140;-71
2022/09/07 08:12:56;;;;;;;16.30;13.95;;;;;;;;;;4966074;28;20176;-71
2022/09/07 08:15:22;;;;;;;16.77;14.68;;;;;;;;;;4986432;28;20495;-71
2022/09/07 08:17:49;;;;;;;18.33;14.20;;;;;;;;;;4994503;28;20023;-71
2022/09/07 08:20:15;;;;;;;20.50;16.08;;;;;;;;;;4994277;28;20034;-71
2022/09/07 08:22:41;;;;;;;20.98;14.75;;;;;;;;;;4979736;28;20035;-71
2022/09/07 08:25:08;;;;;;;20.05;15.30;;;;;;;;;;4956994;28;20033;-71
2022/09/07 08:27:34;;;;;;;19.13;15.23;;;;;;;;;;4974309;28;20034;-72
2022/09/07 08:30:00;;;;;;;18.38;15.55;;;;;;;;;;4988756;28;20069;-71
2022/09/07 08:32:28;;;;;;;20.15;14.98;;;;;;;;;;4977358;28;20031;-71
2022/09/07 08:34:55;;;;;;;23.00;14.18;;;;;;;;;;4963109;28;20532;-72
2022/09/07 08:37:21;;;;;;;22.75;16.27;;;;;;;;;;4987156;28;20022;-72
2022/09/07 08:39:47;;;;;;;18.13;14.98;;;;;;;;;;4993943;28;20531;-72
2022/09/07 08:42:32;;;;;;;24.60;14.30;;;;;;;;;;4993686;28;20053;-72
2022/09/07 08:45:03;;;;;;;20.48;14.05;;;;;;;;;;4993797;28;20049;-73
2022/09/07 08:47:35;;;;;;;17.75;12.82;;;;;;;;;;4982279;28;20054;-73
2022/09/07 08:50:09;;;;;;;17.17;12.75;;;;;;;;;;4974508;28;20027;-72
2022/09/07 08:52:50;;;;;;;14.52;13.02;;;;;;;;;;4990620;28;20102;-72
2022/09/07 08:55:16;;;;;;;17.85;12.77;;;;;;;;;;4993993;28;20026;-72
2022/09/07 08:57:46;;;;;;;13.98;11.80;;;;;;;;;;4993581;28;20118;-72
2022/09/07 09:00:13;;;;;;;14.80;11.45;;;;;;;;;;4991597;28;20034;-72
2022/09/07 09:02:39;;;;;;;14.10;10.82;;;;;;;;;;4990282;28;20097;-73
2022/09/07 09:05:16;;;;;;;13.93;11.20;;;;;;;;;;4975857;28;20045;-72
2022/09/07 09:07:47;;;;;;;13.98;10.80;;;;;;;;;;4974649;28;20072;-71
2022/09/07 09:10:40;;;;;;;12.95;10.55;;;;;;;;;;4991949;28;20562;-71
2022/09/07 09:13:06;;;;;;;12.57;9.70;;;;;;;;;;4939159;28;20035;-71
2022/09/07 09:15:54;;;;;;;13.07;10.23;;;;;;;;;;4973405;28;20116;-70
2022/09/07 09:18:39;;;;;;;11.88;10.38;;;;;;;;;;4992374;28;20491;-70
2022/09/07 09:21:06;;;;;;;13.50;10.60;;;;;;;;;;4974884;28;20077;-70
2022/09/07 09:23:42;;;;;;;13.65;10.85;;;;;;;;;;4992105;28;20029;-70
2022/09/07 09:26:11;;;;;;;18.13;11.35;;;;;;;;;;4991123;28;20065;-70
2022/09/07 09:28:38;;;;;;;12.13;10.82;;;;;;;;;;4992631;28;20113;-70
2022/09/07 09:31:04;;;;;;;16.30;10.98;;;;;;;;;;4992793;28;20042;-70
2022/09/07 09:33:30;;;;;;;16.63;10.40;;;;;;;;;;4991522;28;20034;-70
2022/09/07 09:35:58;;;;;;;11.43;10.15;;;;;;;;;;4991253;28;20482;-70
2022/09/07 09:38:32;;;;;;;10.52;8.88;;;;;;;;;;4992057;28;20038;-70
2022/09/07 09:41:00;;;;;;;12.15;8.70;;;;;;;;;;4992654;28;20080;-70
2022/09/07 09:43:30;;;;;;;12.52;8.98;;;;;;;;;;4992418;28;20795;-70
2022/09/07 09:45:57;;;;;;;10.60;9.50;;;;;;;;;;4990525;28;20034;-70
2022/09/07 09:48:26;;;;;;;12.40;8.93;;;;;;;;;;4992188;28;20053;-71
2022/09/07 09:50:54;;;;;;;12.82;8.52;;;;;;;;;;4990807;28;20504;-71
2022/09/07 09:53:41;;;;;;;9.98;7.30;;;;;;;;;;4991185;28;20092;-71
2022/09/07 09:56:07;;;;;;;11.40;7.80;;;;;;;;;;4990848;28;20023;-70
2022/09/07 09:58:34;;;;;;;10.05;6.90;;;;;;;;;;4992161;28;20039;-70
2022/09/07 10:01:03;;;;;;;12.23;6.53;;;;;;;;;;4990953;28;20030;-70
2022/09/07 10:03:31;;;;;;;10.70;6.75;;;;;;;;;;4979161;28;20122;-70
2022/09/07 10:05:58;;;;;;;13.32;7.10;;;;;;;;;;4973234;28;20034;-70
2022/09/07 10:08:23;;;;;;;8.15;6.88;;;;;;;;;;4972874;28;20106;-69
2022/09/07 10:10:54;;;;;;;10.80;6.85;;;;;;;;;;4973219;28;20576;-69
2022/09/07 10:13:21;;;;;;;9.25;6.13;;;;;;;;;;4972130;28;20027;-70
2022/09/07 10:15:50;;;;;;;11.75;5.03;;;;;;;;;;4976463;28;20027;-70
2022/09/07 10:18:23;;;;;;;8.00;5.65;;;;;;;;;;4988534;28;20030;-70
2022/09/07 10:20:49;;;;;;;10.60;5.78;;;;;;;;;;4992292;28;20076;-70
2022/09/07 10:23:20;;;;;;;9.35;5.60;;;;;;;;;;4991965;28;20498;-70
2022/09/07 10:25:46;;;;;;;10.65;5.80;;;;;;;;;;4992088;28;20030;-70
2022/09/07 10:28:22;;;;;;;8.18;5.68;;;;;;;;;;4991507;28;20396;-69
2022/09/07 10:31:07;;;;;;;10.57;4.30;;;;;;;;;;4989834;28;20030;-69
2022/09/07 10:33:59;;;;;;;8.85;5.07;;;;;;;;;;4988525;28;20029;-70
2022/09/07 10:36:46;;;;;;;11.27;5.15;;;;;;;;;;4960453;28;20098;-69
2022/09/07 10:39:22;;;;;;;7.93;4.70;;;;;;;;;;4991121;28;20395;-68
2022/09/07 10:42:01;;;;;;;9.63;3.20;;;;;;;;;;4991414;28;20041;-70
2022/09/07 10:44:26;;;;;;;9.15;4.20;;;;;;;;;;4991294;28;20030;-69
2022/09/07 10:46:58;;;;;;;10.07;3.60;;;;;;;;;;4989396;28;20710;-69
2022/09/07 10:49:26;;;;;;;13.93;4.25;;;;;;;;;;4978851;28;20028;-69
2022/09/07 10:52:11;;;;;;;9.93;3.75;;;;;;;;;;4990999;28;20030;-70
2022/09/07 10:54:55;;;;;;;10.57;3.65;;;;;;;;;;4991062;28;20452;-70
2022/09/07 10:57:21;;;;;;;11.35;3.53;;;;;;;;;;4991519;28;20030;-70
2022/09/07 11:00:01;;;;;;;11.30;3.50;;;;;;;;;;4990565;28;20109;-70
2022/09/07 11:02:45;;;;;;;9.90;3.45;;;;;;;;;;4988063;28;20034;-70
2022/09/07 11:05:11;;;;;;;12.90;4.50;;;;;;;;;;4990898;28;20030;-69
2022/09/07 11:07:56;;;;;;;8.63;2.58;;;;;;;;;;4990030;28;20029;-69
2022/09/07 11:10:32;;;;;;;7.38;2.55;;;;;;;;;;4989923;28;20042;-70
2022/09/07 11:12:59;;;;;;;7.82;2.30;;;;;;;;;;4990772;28;20038;-69
2022/09/07 11:15:27;;;;;;;8.35;2.33;;;;;;;;;;4988505;28;20045;-69
2022/09/07 11:17:56;;;;;;;10.20;2.65;;;;;;;;;;4974130;28;20046;-69
2022/09/07 11:20:28;;;;;;;9.85;2.60;;;;;;;;;;4983294;28;20080;-69
2022/09/07 11:22:56;;;;;;;10.98;2.67;;;;;;;;;;4990653;28;20041;-68
2022/09/07 11:25:39;;;;;;;7.63;2.90;;;;;;;;;;4972061;28;20035;-70
2022/09/07 11:28:15;;;;;;;12.05;2.97;;;;;;;;;;4990130;28;20034;-69
2022/09/07 11:30:43;;;;;;;11.48;2.35;;;;;;;;;;4981689;28;20050;-71
2022/09/07 11:33:24;;;;;;;5.97;2.20;;;;;;;;;;4988940;28;20026;-70
2022/09/07 11:35:58;;;;;;;7.65;1.98;;;;;;;;;;4991170;28;20030;-69
2022/09/07 11:38:24;;;;;;;10.90;2.75;;;;;;;;;;4990445;28;20041;-70
2022/09/07 11:40:53;;;;;;;11.07;3.10;;;;;;;;;;4991402;28;20034;-70
2022/09/07 11:43:21;;;;;;;15.30;2.72;;;;;;;;;;4990223;28;21251;-69
2022/09/07 11:45:50;;;;;;;7.60;3.00;;;;;;;;;;4989765;28;20487;-69
2022/09/07 11:48:34;;;;;;;9.25;2.38;;;;;;;;;;4991026;28;20022;-69
2022/09/07 11:51:03;;;;;;;7.05;2.42;;;;;;;;;;4990488;28;20108;-69
2022/09/07 11:53:42;;;;;;;6.90;2.28;;;;;;;;;;4989623;28;20483;-70
2022/09/07 11:56:14;;;;;;;7.87;2.60;;;;;;;;;;4990747;28;20033;-69
2022/09/07 11:58:57;;;;;;;11.18;2.30;;;;;;;;;;4988583;28;20104;-69
2022/09/07 12:01:42;;;;;;;8.63;2.95;;;;;;;;;;4982516;28;20112;-70
2022/09/07 12:04:23;;;;;;;9.65;2.13;;;;;;;;;;4972753;28;20503;-69
2022/09/07 12:06:59;;;;;;;9.10;2.67;;;;;;;;;;4990425;28;20519;-69
2022/09/07 12:09:42;;;;;;;7.50;2.42;;;;;;;;;;4988619;28;20027;-69
2022/09/07 12:12:11;;;;;;;9.32;2.40;;;;;;;;;;4989638;28;20157;-70
2022/09/07 12:14:43;;;;;;;6.75;2.65;;;;;;;;;;4986384;28;20032;-69
2022/09/07 12:17:15;;;;;;;11.43;3.05;;;;;;;;;;4990177;28;20026;-69
2022/09/07 12:19:41;;;;;;;10.60;3.05;;;;;;;;;;4987714;28;20142;-69
2022/09/07 12:22:21;;;;;;;11.18;3.05;;;;;;;;;;4986085;28;20030;-69
2022/09/07 12:24:50;;;;;;;14.48;2.67;;;;;;;;;;4983160;28;20035;-70
2022/09/07 12:27:20;;;;;;;9.10;2.60;;;;;;;;;;4965452;28;20030;-69
2022/09/07 12:29:51;;;;;;;13.52;2.47;;;;;;;;;;4982030;28;20031;-69
2022/09/07 12:32:36;;;;;;;9.68;2.75;;;;;;;;;;4970778;28;20034;-69
2022/09/07 12:35:02;;;;;;;7.65;2.47;;;;;;;;;;4983858;28;20038;-69
2022/09/07 12:37:40;;;;;;;11.35;2.58;;;;;;;;;;4986996;28;20081;-69
2022/09/07 12:40:25;;;;;;;8.63;2.63;;;;;;;;;;4994126;28;20483;-69
2022/09/07 12:43:10;;;;;;;11.43;2.75;;;;;;;;;;4991800;28;20026;-69
2022/09/07 12:45:36;;;;;;;10.25;2.45;;;;;;;;;;4985298;28;20030;-68
2022/09/07 12:48:10;;;;;;;10.43;2.33;;;;;;;;;;4973558;28;20036;-69
2022/09/07 12:50:41;;;;;;;10.40;3.15;;;;;;;;;;4989964;28;20154;-68
2022/09/07 12:53:16;;;;;;;7.50;2.33;;;;;;;;;;4990728;28;20084;-69
2022/09/07 12:55:51;;;;;;;9.48;2.42;;;;;;;;;;4992642;28;20062;-68
2022/09/07 12:58:17;;;;;;;9.60;2.20;;;;;;;;;;4991999;28;20084;-69
2022/09/07 13:00:45;;;;;;;11.88;1.98;;;;;;;;;;4990179;28;20031;-69
2022/09/07 13:03:20;;;;;;;7.80;2.00;;;;;;;;;;4989727;28;20065;-70
2022/09/07 13:05:55;;;;;;;7.90;1.90;;;;;;;;;;4992587;28;20403;-70
2022/09/07 13:08:40;;;;;;;7.65;2.20;;;;;;;;;;4988386;28;20042;-70
2022/09/07 13:11:29;;;;;;;6.97;2.10;;;;;;;;;;4993000;28;20042;-70
2022/09/07 13:14:02;;;;;;;7.32;2.10;;;;;;;;;;4977940;28;21080;-70
2022/09/07 13:16:36;;;;;;;8.48;2.35;;;;;;;;;;4989238;28;20689;-68
2022/09/07 13:19:03;;;;;;;11.52;2.08;;;;;;;;;;4991019;28;20034;-69
2022/09/07 13:21:31;;;;;;;7.93;2.30;;;;;;;;;;4991422;28;20160;-68
2022/09/07 13:24:15;;;;;;;8.23;2.33;;;;;;;;;;4992220;28;20138;-68
2022/09/07 13:26:58;;;;;;;9.90;2.45;;;;;;;;;;4988113;28;20026;-69
2022/09/07 13:29:44;;;;;;;10.25;2.30;;;;;;;;;;4983875;28;20443;-68
2022/09/07 13:32:24;;;;;;;7.32;2.33;;;;;;;;;;4948169;28;20111;-70
2022/09/07 13:34:56;;;;;;;13.15;2.80;;;;;;;;;;4974355;28;20117;-69
2022/09/07 13:37:24;;;;;;;8.80;2.00;;;;;;;;;;4989066;28;20046;-69
2022/09/07 13:39:53;;;;;;;7.38;2.10;;;;;;;;;;4992263;28;20117;-69
2022/09/07 13:42:22;;;;;;;6.63;2.17;;;;;;;;;;4988120;28;20034;-69
2022/09/07 13:44:56;;;;;;;5.85;2.38;;;;;;;;;;4988439;28;20530;-69
2022/09/07 13:47:22;;;;;;;9.00;2.50;;;;;;;;;;4990601;28;20038;-69
2022/09/07 13:49:59;;;;;;;13.07;2.92;;;;;;;;;;4991724;28;20037;-70
2022/09/07 13:52:25;;;;;;;9.93;2.10;;;;;;;;;;4985467;28;20120;-69
2022/09/07 13:55:01;;;;;;;10.23;2.30;;;;;;;;;;4987646;28;20031;-69
2022/09/07 13:57:30;;;;;;;7.25;2.05;;;;;;;;;;4983073;28;20026;-70
2022/09/07 13:59:56;;;;;;;8.90;2.50;;;;;;;;;;4984384;28;20038;-70
2022/09/07 14:02:32;;;;;;;7.45;2.40;;;;;;;;;;4987170;28;20030;-69
2022/09/07 14:04:59;;;;;;;8.70;2.25;;;;;;;;;;4992293;28;20522;-70
2022/09/07 14:07:26;;;;;;;6.63;2.03;;;;;;;;;;4986595;28;20030;-70
2022/09/07 14:10:04;;;;;;;5.72;1.95;;;;;;;;;;4993260;28;20038;-70
2022/09/07 14:12:30;;;;;;;8.80;2.03;;;;;;;;;;4993759;28;20094;-69
2022/09/07 14:15:15;;;;;;;9.27;2.40;;;;;;;;;;4996347;28;20038;-70
2022/09/07 14:17:41;;;;;;;9.10;2.10;;;;;;;;;;4988756;28;20110;-69
2022/09/07 14:20:12;;;;;;;6.93;2.08;;;;;;;;;;4992074;28;20499;-70
2022/09/07 14:22:39;;;;;;;11.70;2.28;;;;;;;;;;4992458;28;20475;-69
2022/09/07 14:25:06;;;;;;;7.80;1.80;;;;;;;;;;4990961;28;20491;-70
2022/09/07 14:27:34;;;;;;;7.97;1.92;;;;;;;;;;4988737;28;20034;-69
2022/09/07 14:30:19;;;;;;;6.80;1.88;;;;;;;;;;4986610;28;20041;-69
2022/09/07 14:32:49;;;;;;;11.80;2.13;;;;;;;;;;4987571;28;20034;-69
2022/09/07 14:35:16;;;;;;;11.38;2.78;;;;;;;;;;4991230;28;20330;-70
2022/09/07 14:37:43;;;;;;;6.88;2.25;;;;;;;;;;4991279;28;20042;-68
2022/09/07 14:40:13;;;;;;;11.75;2.20;;;;;;;;;;4991330;28;20030;-69
2022/09/07 14:42:41;;;;;;;11.07;2.13;;;;;;;;;;4991969;28;20026;-69